createdAt,value
2018-07-28T00:00:09.460Z,155
2018-07-28T00:00:21.875Z,155
2018-07-28T00:00:34.266Z,155
2018-07-28T00:00:46.739Z,155
2018-07-28T00:00:59.171Z,155
2018-07-28T00:01:11.579Z,155
2018-07-28T00:01:24.198Z,155
2018-07-28T00:01:36.591Z,155
2018-07-28T00:01:49.015Z,155
2018-07-28T00:02:01.482Z,155
2018-07-28T00:02:14.148Z,155
2018-07-28T00:02:26.540Z,155
2018-07-28T00:02:38.932Z,155
2018-07-28T00:02:51.340Z,155
2018-07-28T00:03:03.757Z,155
2018-07-28T00:03:16.313Z,155
2018-07-28T00:03:28.725Z,155
2018-07-28T00:03:41.151Z,155
2018-07-28T00:03:53.557Z,155
2018-07-28T00:04:06.007Z,155
2018-07-28T00:04:18.412Z,155
2018-07-28T00:04:30.873Z,154
2018-07-28T00:04:43.309Z,155
2018-07-28T00:04:55.713Z,155
2018-07-28T00:05:08.105Z,155
2018-07-28T00:05:20.537Z,155
2018-07-28T00:05:32.937Z,155
2018-07-28T00:05:45.328Z,155
2018-07-28T00:05:57.835Z,155
2018-07-28T00:06:10.227Z,155
2018-07-28T00:06:22.621Z,155
2018-07-28T00:06:35.010Z,155
2018-07-28T00:06:47.404Z,155
2018-07-28T00:06:59.811Z,155
2018-07-28T00:07:12.233Z,155
2018-07-28T00:07:24.623Z,155
2018-07-28T00:07:37.010Z,154
2018-07-28T00:07:49.414Z,155
2018-07-28T00:08:01.795Z,155
2018-07-28T00:08:14.235Z,155
2018-07-28T00:08:26.617Z,155
2018-07-28T00:08:39.106Z,155
2018-07-28T00:08:51.524Z,155
2018-07-28T00:09:03.943Z,155
2018-07-28T00:09:16.377Z,155
2018-07-28T00:09:28.770Z,155
2018-07-28T00:09:41.163Z,155
2018-07-28T00:09:53.567Z,155
2018-07-28T00:10:05.967Z,155
2018-07-28T00:10:18.346Z,155
2018-07-28T00:10:30.755Z,155
2018-07-28T00:10:43.162Z,155
2018-07-28T00:10:55.619Z,155
2018-07-28T00:11:08.067Z,155
2018-07-28T00:11:20.502Z,155
2018-07-28T00:11:32.898Z,155
2018-07-28T00:11:45.307Z,155
2018-07-28T00:11:57.689Z,155
2018-07-28T00:12:10.088Z,155
2018-07-28T00:12:22.500Z,155
2018-07-28T00:12:34.931Z,155
2018-07-28T00:12:47.367Z,155
2018-07-28T00:12:59.787Z,155
2018-07-28T00:13:12.203Z,155
2018-07-28T00:13:24.592Z,154
2018-07-28T00:13:37.012Z,154
2018-07-28T00:13:49.403Z,154
2018-07-28T00:14:01.785Z,155
2018-07-28T00:14:14.173Z,155
2018-07-28T00:14:26.571Z,155
2018-07-28T00:14:38.974Z,155
2018-07-28T00:14:51.397Z,155
2018-07-28T00:15:03.788Z,154
2018-07-28T00:15:16.186Z,154
2018-07-28T00:15:28.606Z,155
2018-07-28T00:15:40.992Z,154
2018-07-28T00:15:53.423Z,154
2018-07-28T00:16:05.963Z,154
2018-07-28T00:16:18.451Z,140
2018-07-28T00:16:30.843Z,140
2018-07-28T00:16:43.232Z,140
2018-07-28T00:16:55.633Z,140
2018-07-28T00:17:08.034Z,140
2018-07-28T00:17:20.445Z,140
2018-07-28T00:17:32.855Z,140
2018-07-28T00:17:45.257Z,140
2018-07-28T00:17:57.648Z,140
2018-07-28T00:18:10.039Z,140
2018-07-28T00:18:22.440Z,140
2018-07-28T00:18:34.841Z,140
2018-07-28T00:18:47.244Z,140
2018-07-28T00:18:59.650Z,140
2018-07-28T00:19:12.059Z,140
2018-07-28T00:19:24.531Z,140
2018-07-28T00:19:36.937Z,140
2018-07-28T00:19:49.312Z,140
2018-07-28T00:20:01.737Z,140
2018-07-28T00:20:14.133Z,140
2018-07-28T00:20:26.539Z,140
2018-07-28T00:20:38.940Z,140
2018-07-28T00:20:51.358Z,140
2018-07-28T00:21:03.752Z,140
2018-07-28T00:21:16.207Z,140
2018-07-28T00:21:28.602Z,140
2018-07-28T00:21:41.074Z,140
2018-07-28T00:21:53.470Z,140
2018-07-28T00:22:05.905Z,113
2018-07-28T00:22:18.662Z,76
2018-07-28T00:22:31.207Z,76
2018-07-28T00:22:43.590Z,78
2018-07-28T00:22:55.978Z,78
2018-07-28T00:23:08.368Z,78
2018-07-28T00:23:20.956Z,78
2018-07-28T00:23:33.347Z,78
2018-07-28T00:23:45.791Z,78
2018-07-28T00:23:58.180Z,78
2018-07-28T00:24:10.572Z,78
2018-07-28T00:24:22.993Z,78
2018-07-28T00:24:35.394Z,78
2018-07-28T00:24:47.806Z,78
2018-07-28T00:25:00.200Z,78
2018-07-28T00:25:12.601Z,78
2018-07-28T00:25:24.997Z,78
2018-07-28T00:25:37.393Z,78
2018-07-28T00:25:49.779Z,78
2018-07-28T00:26:02.210Z,78
2018-07-28T00:26:14.624Z,78
2018-07-28T00:26:27.040Z,78
2018-07-28T00:26:39.432Z,78
2018-07-28T00:26:51.835Z,78
2018-07-28T00:27:04.224Z,78
2018-07-28T00:27:16.637Z,78
2018-07-28T00:27:29.046Z,78
2018-07-28T00:27:41.441Z,78
2018-07-28T00:27:53.842Z,78
2018-07-28T00:28:06.297Z,77
2018-07-28T00:28:18.731Z,77
2018-07-28T00:28:31.151Z,78
2018-07-28T00:28:43.720Z,78
2018-07-28T00:28:56.122Z,78
2018-07-28T00:29:08.530Z,78
2018-07-28T00:29:20.924Z,78
2018-07-28T00:29:33.343Z,78
2018-07-28T00:29:45.760Z,78
2018-07-28T00:29:58.195Z,78
2018-07-28T00:30:10.601Z,78
2018-07-28T00:30:22.998Z,78
2018-07-28T00:30:35.386Z,78
2018-07-28T00:30:47.788Z,78
2018-07-28T00:31:00.177Z,78
2018-07-28T00:31:12.581Z,78
2018-07-28T00:31:24.988Z,78
2018-07-28T00:31:37.408Z,78
2018-07-28T00:31:49.804Z,78
2018-07-28T00:32:02.204Z,78
2018-07-28T00:32:14.619Z,78
2018-07-28T00:32:27.029Z,94
2018-07-28T00:32:39.433Z,92
2018-07-28T00:32:51.821Z,93
2018-07-28T00:33:04.221Z,93
2018-07-28T00:33:16.635Z,103
2018-07-28T00:33:29.036Z,103
2018-07-28T00:33:41.455Z,82
2018-07-28T00:33:53.851Z,82
2018-07-28T00:34:06.306Z,83
2018-07-28T00:34:18.679Z,83
2018-07-28T00:34:31.082Z,83
2018-07-28T00:34:43.474Z,83
2018-07-28T00:34:55.886Z,83
2018-07-28T00:35:08.271Z,83
2018-07-28T00:35:20.673Z,83
2018-07-28T00:35:33.061Z,83
2018-07-28T00:35:45.464Z,83
2018-07-28T00:35:57.864Z,83
2018-07-28T00:36:10.280Z,83
2018-07-28T00:36:22.683Z,83
2018-07-28T00:36:35.074Z,83
2018-07-28T00:36:47.477Z,83
2018-07-28T00:36:59.865Z,83
2018-07-28T00:37:12.273Z,83
2018-07-28T00:37:24.660Z,84
2018-07-28T00:37:37.052Z,84
2018-07-28T00:37:49.444Z,84
2018-07-28T00:38:01.832Z,84
2018-07-28T00:38:14.218Z,84
2018-07-28T00:38:26.629Z,84
2018-07-28T00:38:39.080Z,84
2018-07-28T00:38:51.522Z,84
2018-07-28T00:39:03.913Z,84
2018-07-28T00:39:16.404Z,84
2018-07-28T00:39:28.809Z,84
2018-07-28T00:39:41.219Z,84
2018-07-28T00:39:53.683Z,84
2018-07-28T00:40:06.088Z,84
2018-07-28T00:40:18.512Z,84
2018-07-28T00:40:30.899Z,84
2018-07-28T00:40:43.297Z,84
2018-07-28T00:40:55.692Z,84
2018-07-28T00:41:08.086Z,84
2018-07-28T00:41:20.466Z,84
2018-07-28T00:41:32.868Z,82
2018-07-28T00:41:45.282Z,63
2018-07-28T00:41:57.680Z,63
2018-07-28T00:42:10.082Z,64
2018-07-28T00:42:22.504Z,64
2018-07-28T00:42:34.899Z,64
2018-07-28T00:42:47.290Z,64
2018-07-28T00:42:59.686Z,64
2018-07-28T00:43:12.068Z,64
2018-07-28T00:43:24.465Z,64
2018-07-28T00:43:36.852Z,58
2018-07-28T00:43:49.257Z,59
2018-07-28T00:44:01.641Z,63
2018-07-28T00:44:14.056Z,63
2018-07-28T00:44:26.486Z,63
2018-07-28T00:44:38.884Z,63
2018-07-28T00:44:51.367Z,40
2018-07-28T00:45:03.780Z,37
2018-07-28T00:45:16.180Z,37
2018-07-28T00:45:28.586Z,37
2018-07-28T00:45:40.973Z,38
2018-07-28T00:45:53.371Z,57
2018-07-28T00:46:05.845Z,58
2018-07-28T00:46:18.234Z,58
2018-07-28T00:46:30.630Z,36
2018-07-28T00:46:43.024Z,9
2018-07-28T00:46:55.414Z,52
2018-07-28T00:47:07.811Z,63
2018-07-28T00:47:20.209Z,104
2018-07-28T00:47:32.607Z,98
2018-07-28T00:47:44.987Z,98
2018-07-28T00:47:57.378Z,17
2018-07-28T00:48:09.773Z,49
2018-07-28T00:48:22.186Z,49
2018-07-28T00:48:34.582Z,70
2018-07-28T00:48:46.977Z,87
2018-07-28T00:48:59.603Z,87
2018-07-28T00:49:12.007Z,87
2018-07-28T00:49:24.424Z,87
2018-07-28T00:49:36.856Z,87
2018-07-28T00:49:49.257Z,87
2018-07-28T00:50:01.694Z,87
2018-07-28T00:50:14.100Z,87
2018-07-28T00:50:26.526Z,87
2018-07-28T00:50:38.911Z,87
2018-07-28T00:50:51.315Z,87
2018-07-28T00:51:03.720Z,87
2018-07-28T00:51:16.126Z,87
2018-07-28T00:51:28.548Z,87
2018-07-28T00:51:41.079Z,55
2018-07-28T00:51:53.498Z,55
2018-07-28T00:52:05.925Z,55
2018-07-28T00:52:18.329Z,53
2018-07-28T00:52:30.757Z,53
2018-07-28T00:52:43.184Z,55
2018-07-28T00:52:55.579Z,55
2018-07-28T00:53:07.974Z,55
2018-07-28T00:53:20.537Z,55
2018-07-28T00:53:32.925Z,55
2018-07-28T00:53:45.353Z,55
2018-07-28T00:53:57.774Z,55
2018-07-28T00:54:10.211Z,55
2018-07-28T00:54:22.700Z,55
2018-07-28T00:54:35.106Z,55
2018-07-28T00:54:47.483Z,55
2018-07-28T00:54:59.887Z,55
2018-07-28T00:55:12.281Z,55
2018-07-28T00:55:24.744Z,55
2018-07-28T00:55:37.152Z,55
2018-07-28T00:55:49.543Z,55
2018-07-28T00:56:01.945Z,55
2018-07-28T00:56:14.338Z,55
2018-07-28T00:56:26.739Z,56
2018-07-28T00:56:39.152Z,56
2018-07-28T00:56:51.569Z,56
2018-07-28T00:57:03.975Z,56
2018-07-28T00:57:16.366Z,56
2018-07-28T00:57:28.800Z,56
2018-07-28T00:57:41.266Z,89
2018-07-28T00:57:53.660Z,147
2018-07-28T00:58:06.062Z,115
2018-07-28T00:58:18.470Z,113
2018-07-28T00:58:30.878Z,113
2018-07-28T00:58:43.280Z,113
2018-07-28T00:58:55.667Z,113
2018-07-28T00:59:08.086Z,113
2018-07-28T00:59:20.487Z,113
2018-07-28T00:59:32.900Z,113
2018-07-28T00:59:45.324Z,113
2018-07-28T00:59:57.731Z,113
2018-07-28T01:00:10.165Z,113
2018-07-28T01:00:22.562Z,113
2018-07-28T01:00:35.003Z,113
2018-07-28T01:00:47.603Z,113
2018-07-28T01:01:00.052Z,113
2018-07-28T01:01:12.510Z,113
2018-07-28T01:01:24.942Z,113
2018-07-28T01:01:37.363Z,113
2018-07-28T01:01:49.809Z,113
2018-07-28T01:02:02.227Z,113
2018-07-28T01:02:14.766Z,113
2018-07-28T01:02:27.172Z,113
2018-07-28T01:02:39.602Z,113
2018-07-28T01:02:52.012Z,113
2018-07-28T01:03:04.423Z,113
2018-07-28T01:03:16.827Z,113
2018-07-28T01:03:29.265Z,113
2018-07-28T01:03:41.683Z,113
2018-07-28T01:03:54.222Z,113
2018-07-28T01:04:06.641Z,113
2018-07-28T01:04:19.060Z,74
2018-07-28T01:04:31.629Z,81
2018-07-28T01:04:44.036Z,81
2018-07-28T01:04:56.462Z,81
2018-07-28T01:05:08.891Z,81
2018-07-28T01:05:21.306Z,81
2018-07-28T01:05:33.714Z,80
2018-07-28T01:05:46.114Z,94
2018-07-28T01:05:58.679Z,98
2018-07-28T01:06:11.091Z,98
2018-07-28T01:06:23.476Z,98
2018-07-28T01:06:35.894Z,98
2018-07-28T01:06:48.301Z,98
2018-07-28T01:07:00.691Z,98
2018-07-28T01:07:13.096Z,98
2018-07-28T01:07:25.515Z,98
2018-07-28T01:07:37.927Z,98
2018-07-28T01:07:50.333Z,98
2018-07-28T01:08:02.724Z,98
2018-07-28T01:08:15.111Z,98
2018-07-28T01:08:27.489Z,104
2018-07-28T01:08:39.878Z,103
2018-07-28T01:08:52.266Z,70
2018-07-28T01:09:04.704Z,70
2018-07-28T01:09:17.101Z,71
2018-07-28T01:09:29.490Z,71
2018-07-28T01:09:41.950Z,71
2018-07-28T01:09:54.356Z,71
2018-07-28T01:10:06.781Z,71
2018-07-28T01:10:19.191Z,71
2018-07-28T01:10:31.576Z,71
2018-07-28T01:10:44.033Z,71
2018-07-28T01:10:56.472Z,71
2018-07-28T01:11:08.895Z,71
2018-07-28T01:11:21.321Z,71
2018-07-28T01:11:33.732Z,71
2018-07-28T01:11:46.108Z,70
2018-07-28T01:11:58.497Z,70
2018-07-28T01:12:10.905Z,70
2018-07-28T01:12:23.310Z,70
2018-07-28T01:12:35.702Z,70
2018-07-28T01:12:48.087Z,71
2018-07-28T01:13:00.479Z,71
2018-07-28T01:13:12.869Z,71
2018-07-28T01:13:25.272Z,70
2018-07-28T01:13:37.685Z,71
2018-07-28T01:13:50.091Z,71
2018-07-28T01:14:02.527Z,69
2018-07-28T01:14:14.947Z,70
2018-07-28T01:14:27.357Z,70
2018-07-28T01:14:39.764Z,70
2018-07-28T01:14:52.231Z,70
2018-07-28T01:15:04.640Z,70
2018-07-28T01:15:17.041Z,70
2018-07-28T01:15:29.451Z,70
2018-07-28T01:15:41.857Z,70
2018-07-28T01:15:54.632Z,112
2018-07-28T01:16:07.032Z,90
2018-07-28T01:16:19.422Z,97
2018-07-28T01:16:31.845Z,96
2018-07-28T01:16:44.346Z,94
2018-07-28T01:16:56.733Z,107
2018-07-28T01:17:09.181Z,113
2018-07-28T01:17:21.576Z,113
2018-07-28T01:17:33.974Z,113
2018-07-28T01:17:46.353Z,113
2018-07-28T01:17:58.765Z,113
2018-07-28T01:18:11.148Z,113
2018-07-28T01:18:23.560Z,113
2018-07-28T01:18:35.972Z,113
2018-07-28T01:18:48.367Z,113
2018-07-28T01:19:00.756Z,113
2018-07-28T01:19:13.174Z,113
2018-07-28T01:19:25.729Z,113
2018-07-28T01:19:38.137Z,113
2018-07-28T01:19:50.527Z,113
2018-07-28T01:20:02.934Z,113
2018-07-28T01:20:15.326Z,113
2018-07-28T01:20:27.721Z,113
2018-07-28T01:20:40.139Z,113
2018-07-28T01:20:52.537Z,112
2018-07-28T01:21:04.933Z,103
2018-07-28T01:21:17.336Z,103
2018-07-28T01:21:29.729Z,101
2018-07-28T01:21:42.273Z,101
2018-07-28T01:21:54.672Z,101
2018-07-28T01:22:07.069Z,101
2018-07-28T01:22:19.678Z,101
2018-07-28T01:22:32.097Z,101
2018-07-28T01:22:44.489Z,101
2018-07-28T01:22:56.919Z,101
2018-07-28T01:23:09.315Z,101
2018-07-28T01:23:21.852Z,101
2018-07-28T01:23:34.251Z,101
2018-07-28T01:23:46.650Z,101
2018-07-28T01:23:59.044Z,101
2018-07-28T01:24:11.485Z,101
2018-07-28T01:24:23.880Z,101
2018-07-28T01:24:36.318Z,101
2018-07-28T01:24:48.723Z,101
2018-07-28T01:25:01.119Z,101
2018-07-28T01:25:13.576Z,101
2018-07-28T01:25:25.983Z,101
2018-07-28T01:25:38.383Z,101
2018-07-28T01:25:50.786Z,101
2018-07-28T01:26:03.218Z,101
2018-07-28T01:26:15.612Z,101
2018-07-28T01:26:28.060Z,101
2018-07-28T01:26:40.478Z,101
2018-07-28T01:26:52.886Z,101
2018-07-28T01:27:05.304Z,101
2018-07-28T01:27:17.712Z,101
2018-07-28T01:27:30.119Z,101
2018-07-28T01:27:42.532Z,101
2018-07-28T01:27:54.905Z,101
2018-07-28T01:28:07.295Z,101
2018-07-28T01:28:19.719Z,101
2018-07-28T01:28:32.132Z,100
2018-07-28T01:28:44.519Z,101
2018-07-28T01:28:56.915Z,101
2018-07-28T01:29:09.316Z,101
2018-07-28T01:29:21.707Z,101
2018-07-28T01:29:34.104Z,117
2018-07-28T01:29:46.512Z,122
2018-07-28T01:29:58.906Z,122
2018-07-28T01:30:11.320Z,122
2018-07-28T01:30:23.720Z,122
2018-07-28T01:30:36.125Z,122
2018-07-28T01:30:48.509Z,122
2018-07-28T01:31:00.890Z,114
2018-07-28T01:31:13.294Z,109
2018-07-28T01:31:25.679Z,109
2018-07-28T01:31:38.071Z,109
2018-07-28T01:31:50.460Z,115
2018-07-28T01:32:02.847Z,115
2018-07-28T01:32:15.246Z,115
2018-07-28T01:32:27.642Z,115
2018-07-28T01:32:40.036Z,115
2018-07-28T01:32:52.485Z,115
2018-07-28T01:33:04.906Z,115
2018-07-28T01:33:17.434Z,115
2018-07-28T01:33:29.835Z,115
2018-07-28T01:33:42.241Z,115
2018-07-28T01:33:54.625Z,115
2018-07-28T01:34:07.013Z,115
2018-07-28T01:34:19.427Z,115
2018-07-28T01:34:31.844Z,115
2018-07-28T01:34:44.242Z,115
2018-07-28T01:34:56.639Z,115
2018-07-28T01:35:09.043Z,115
2018-07-28T01:35:21.421Z,115
2018-07-28T01:35:33.846Z,115
2018-07-28T01:35:46.257Z,115
2018-07-28T01:35:58.667Z,115
2018-07-28T01:36:11.061Z,115
2018-07-28T01:36:23.451Z,115
2018-07-28T01:36:35.854Z,115
2018-07-28T01:36:48.238Z,115
2018-07-28T01:37:00.643Z,115
2018-07-28T01:37:13.101Z,115
2018-07-28T01:37:25.494Z,115
2018-07-28T01:37:37.887Z,115
2018-07-28T01:37:50.292Z,115
2018-07-28T01:38:02.715Z,115
2018-07-28T01:38:15.332Z,115
2018-07-28T01:38:27.735Z,115
2018-07-28T01:38:40.133Z,115
2018-07-28T01:38:52.512Z,115
2018-07-28T01:39:05.034Z,115
2018-07-28T01:39:17.463Z,115
2018-07-28T01:39:29.862Z,111
2018-07-28T01:39:42.288Z,111
2018-07-28T01:39:54.790Z,111
2018-07-28T01:40:07.239Z,111
2018-07-28T01:40:19.630Z,111
2018-07-28T01:40:32.023Z,111
2018-07-28T01:40:44.507Z,111
2018-07-28T01:40:56.926Z,109
2018-07-28T01:41:09.342Z,109
2018-07-28T01:41:21.751Z,89
2018-07-28T01:41:34.142Z,73
2018-07-28T01:41:46.566Z,78
2018-07-28T01:41:58.971Z,78
2018-07-28T01:42:11.361Z,88
2018-07-28T01:42:23.777Z,105
2018-07-28T01:42:36.210Z,140
2018-07-28T01:42:48.619Z,144
2018-07-28T01:43:01.005Z,144
2018-07-28T01:43:13.424Z,144
2018-07-28T01:43:25.814Z,141
2018-07-28T01:43:38.253Z,69
2018-07-28T01:43:50.645Z,69
2018-07-28T01:44:03.025Z,69
2018-07-28T01:44:15.433Z,92
2018-07-28T01:44:27.824Z,97
2018-07-28T01:44:40.215Z,97
2018-07-28T01:44:52.699Z,107
2018-07-28T01:45:05.100Z,56
2018-07-28T01:45:17.479Z,56
2018-07-28T01:45:29.861Z,56
2018-07-28T01:45:42.262Z,56
2018-07-28T01:45:54.691Z,56
2018-07-28T01:46:07.125Z,56
2018-07-28T01:46:19.533Z,56
2018-07-28T01:46:31.939Z,56
2018-07-28T01:46:44.350Z,56
2018-07-28T01:46:56.749Z,56
2018-07-28T01:47:09.137Z,56
2018-07-28T01:47:21.521Z,56
2018-07-28T01:47:33.993Z,57
2018-07-28T01:47:46.396Z,83
2018-07-28T01:47:58.788Z,83
2018-07-28T01:48:11.340Z,83
2018-07-28T01:48:23.751Z,83
2018-07-28T01:48:36.179Z,83
2018-07-28T01:48:48.591Z,83
2018-07-28T01:49:01.136Z,83
2018-07-28T01:49:13.542Z,83
2018-07-28T01:49:26.210Z,83
2018-07-28T01:49:39.424Z,83
2018-07-28T01:49:51.825Z,110
2018-07-28T01:50:04.243Z,110
2018-07-28T01:50:16.642Z,110
2018-07-28T01:50:29.071Z,110
2018-07-28T01:50:41.461Z,110
2018-07-28T01:50:53.848Z,110
2018-07-28T01:51:06.256Z,110
2018-07-28T01:51:18.648Z,110
2018-07-28T01:51:31.060Z,110
2018-07-28T01:51:43.653Z,110
2018-07-28T01:51:56.075Z,110
2018-07-28T01:52:08.482Z,110
2018-07-28T01:52:20.878Z,110
2018-07-28T01:52:33.277Z,110
2018-07-28T01:52:45.697Z,110
2018-07-28T01:52:58.091Z,110
2018-07-28T01:53:10.500Z,110
2018-07-28T01:53:23.077Z,111
2018-07-28T01:53:35.476Z,111
2018-07-28T01:53:47.878Z,111
2018-07-28T01:54:00.273Z,118
2018-07-28T01:54:12.679Z,123
2018-07-28T01:54:25.050Z,139
2018-07-28T01:54:37.453Z,135
2018-07-28T01:54:49.843Z,136
2018-07-28T01:55:02.246Z,137
2018-07-28T01:55:14.649Z,136
2018-07-28T01:55:27.225Z,136
2018-07-28T01:55:39.622Z,136
2018-07-28T01:55:52.045Z,136
2018-07-28T01:56:04.450Z,133
2018-07-28T01:56:16.842Z,124
2018-07-28T01:56:29.254Z,124
2018-07-28T01:56:41.687Z,124
2018-07-28T01:56:54.092Z,142
2018-07-28T01:57:06.514Z,132
2018-07-28T01:57:18.925Z,132
2018-07-28T01:57:31.321Z,132
2018-07-28T01:57:43.700Z,142
2018-07-28T01:57:56.135Z,142
2018-07-28T01:58:08.541Z,142
2018-07-28T01:58:20.932Z,148
2018-07-28T01:58:33.498Z,151
2018-07-28T01:58:45.909Z,148
2018-07-28T01:58:58.295Z,148
2018-07-28T01:59:10.695Z,146
2018-07-28T01:59:23.114Z,142
2018-07-28T01:59:35.572Z,163
2018-07-28T01:59:48.607Z,149
2018-07-28T02:00:01.322Z,167
2018-07-28T02:00:13.753Z,156
2018-07-28T02:00:26.191Z,119
2018-07-28T02:00:38.603Z,142
2018-07-28T02:00:51.146Z,142
2018-07-28T02:01:03.549Z,142
2018-07-28T02:01:15.936Z,145
2018-07-28T02:01:28.338Z,145
2018-07-28T02:01:40.824Z,160
2018-07-28T02:01:53.250Z,148
2018-07-28T02:02:05.657Z,153
2018-07-28T02:02:18.270Z,146
2018-07-28T02:02:30.673Z,146
2018-07-28T02:02:43.081Z,156
2018-07-28T02:02:55.505Z,156
2018-07-28T02:03:07.937Z,156
2018-07-28T02:03:20.346Z,155
2018-07-28T02:03:32.742Z,155
2018-07-28T02:03:45.160Z,155
2018-07-28T02:03:57.584Z,157
2018-07-28T02:04:09.996Z,157
2018-07-28T02:04:22.605Z,158
2018-07-28T02:04:35.035Z,132
2018-07-28T02:04:47.449Z,155
2018-07-28T02:04:59.857Z,155
2018-07-28T02:05:12.298Z,155
2018-07-28T02:05:24.724Z,155
2018-07-28T02:05:37.124Z,155
2018-07-28T02:05:49.798Z,155
2018-07-28T02:06:02.211Z,155
2018-07-28T02:06:14.681Z,155
2018-07-28T02:06:27.069Z,155
2018-07-28T02:06:39.474Z,155
2018-07-28T02:06:51.873Z,155
2018-07-28T02:07:04.274Z,155
2018-07-28T02:07:16.675Z,155
2018-07-28T02:07:29.062Z,126
2018-07-28T02:07:41.476Z,126
2018-07-28T02:07:53.868Z,126
2018-07-28T02:08:06.270Z,126
2018-07-28T02:08:18.648Z,113
2018-07-28T02:08:31.041Z,112
2018-07-28T02:08:43.441Z,116
2018-07-28T02:08:55.838Z,120
2018-07-28T02:09:08.243Z,120
2018-07-28T02:09:20.672Z,119
2018-07-28T02:09:33.071Z,119
2018-07-28T02:09:45.501Z,120
2018-07-28T02:09:57.912Z,120
2018-07-28T02:10:10.356Z,119
2018-07-28T02:10:22.812Z,119
2018-07-28T02:10:35.223Z,120
2018-07-28T02:10:47.624Z,119
2018-07-28T02:11:00.033Z,119
2018-07-28T02:11:12.436Z,119
2018-07-28T02:11:24.834Z,114
2018-07-28T02:11:37.223Z,114
2018-07-28T02:11:49.633Z,114
2018-07-28T02:12:02.016Z,114
2018-07-28T02:12:14.410Z,114
2018-07-28T02:12:26.795Z,114
2018-07-28T02:12:39.185Z,114
2018-07-28T02:12:51.617Z,114
2018-07-28T02:13:04.016Z,114
2018-07-28T02:13:16.411Z,114
2018-07-28T02:13:28.803Z,114
2018-07-28T02:13:41.245Z,114
2018-07-28T02:13:53.620Z,114
2018-07-28T02:14:05.992Z,114
2018-07-28T02:14:18.361Z,114
2018-07-28T02:14:30.752Z,104
2018-07-28T02:14:43.149Z,104
2018-07-28T02:14:55.526Z,104
2018-07-28T02:15:07.967Z,104
2018-07-28T02:15:20.360Z,104
2018-07-28T02:15:32.744Z,104
2018-07-28T02:15:45.158Z,104
2018-07-28T02:15:57.585Z,104
2018-07-28T02:16:09.995Z,104
2018-07-28T02:16:22.395Z,104
2018-07-28T02:16:34.827Z,104
2018-07-28T02:16:47.237Z,104
2018-07-28T02:16:59.694Z,104
2018-07-28T02:17:12.379Z,104
2018-07-28T02:17:24.788Z,104
2018-07-28T02:17:37.185Z,104
2018-07-28T02:17:49.568Z,104
2018-07-28T02:18:01.990Z,104
2018-07-28T02:18:14.400Z,104
2018-07-28T02:18:26.808Z,104
2018-07-28T02:18:39.205Z,104
2018-07-28T02:18:51.599Z,104
2018-07-28T02:19:03.985Z,104
2018-07-28T02:19:16.552Z,104
2018-07-28T02:19:28.955Z,104
2018-07-28T02:19:41.388Z,104
2018-07-28T02:19:53.819Z,104
2018-07-28T02:20:06.214Z,104
2018-07-28T02:20:18.626Z,111
2018-07-28T02:20:31.016Z,111
2018-07-28T02:20:43.462Z,109
2018-07-28T02:20:55.850Z,109
2018-07-28T02:21:08.253Z,175
2018-07-28T02:21:20.660Z,134
2018-07-28T02:21:33.108Z,115
2018-07-28T02:21:45.518Z,123
2018-07-28T02:21:57.907Z,137
2018-07-28T02:22:10.311Z,127
2018-07-28T02:22:23.042Z,127
2018-07-28T02:22:35.430Z,127
2018-07-28T02:22:47.827Z,127
2018-07-28T02:23:00.263Z,127
2018-07-28T02:23:12.829Z,127
2018-07-28T02:23:25.226Z,127
2018-07-28T02:23:37.608Z,127
2018-07-28T02:23:50.026Z,127
2018-07-28T02:24:02.426Z,127
2018-07-28T02:24:14.853Z,127
2018-07-28T02:24:27.250Z,127
2018-07-28T02:24:39.651Z,127
2018-07-28T02:24:52.050Z,127
2018-07-28T02:25:04.451Z,121
2018-07-28T02:25:16.856Z,64
2018-07-28T02:25:29.270Z,57
2018-07-28T02:25:41.671Z,68
2018-07-28T02:25:54.096Z,67
2018-07-28T02:26:06.509Z,111
2018-07-28T02:26:18.926Z,114
2018-07-28T02:26:31.323Z,114
2018-07-28T02:26:43.716Z,142
2018-07-28T02:26:56.133Z,142
2018-07-28T02:27:08.535Z,142
2018-07-28T02:27:20.973Z,142
2018-07-28T02:27:33.385Z,145
2018-07-28T02:27:45.783Z,145
2018-07-28T02:27:58.175Z,145
2018-07-28T02:28:10.630Z,145
2018-07-28T02:28:23.082Z,139
2018-07-28T02:28:35.468Z,94
2018-07-28T02:28:48.105Z,94
2018-07-28T02:29:01.566Z,94
2018-07-28T02:29:13.985Z,66
2018-07-28T02:29:26.377Z,66
2018-07-28T02:29:38.780Z,66
2018-07-28T02:29:51.176Z,67
2018-07-28T02:30:03.640Z,67
2018-07-28T02:30:16.128Z,67
2018-07-28T02:30:28.568Z,80
2018-07-28T02:30:40.994Z,157
2018-07-28T02:30:53.420Z,157
2018-07-28T02:31:05.822Z,155
2018-07-28T02:31:18.275Z,150
2018-07-28T02:31:30.700Z,150
2018-07-28T02:31:43.120Z,129
2018-07-28T02:31:55.556Z,127
2018-07-28T02:32:07.977Z,127
2018-07-28T02:32:20.419Z,127
2018-07-28T02:32:32.964Z,127
2018-07-28T02:32:45.392Z,118
2018-07-28T02:32:57.815Z,88
2018-07-28T02:33:10.310Z,65
2018-07-28T02:33:22.796Z,65
2018-07-28T02:33:35.249Z,69
2018-07-28T02:33:47.720Z,101
2018-07-28T02:34:00.209Z,101
2018-07-28T02:34:12.640Z,88
2018-07-28T02:34:25.079Z,88
2018-07-28T02:34:37.495Z,86
2018-07-28T02:34:49.986Z,79
2018-07-28T02:35:02.486Z,79
2018-07-28T02:35:15.161Z,79
2018-07-28T02:35:27.650Z,79
2018-07-28T02:35:40.072Z,123
2018-07-28T02:35:52.490Z,108
2018-07-28T02:36:04.922Z,90
2018-07-28T02:36:17.340Z,74
2018-07-28T02:36:29.774Z,67
2018-07-28T02:36:42.213Z,111
2018-07-28T02:36:54.626Z,124
2018-07-28T02:37:07.077Z,124
2018-07-28T02:37:19.494Z,123
2018-07-28T02:37:31.915Z,123
2018-07-28T02:37:44.348Z,124
2018-07-28T02:37:56.777Z,124
2018-07-28T02:38:09.216Z,124
2018-07-28T02:38:21.650Z,124
2018-07-28T02:38:34.071Z,124
2018-07-28T02:38:46.524Z,124
2018-07-28T02:38:58.984Z,124
2018-07-28T02:39:11.404Z,124
2018-07-28T02:39:23.836Z,124
2018-07-28T02:39:36.244Z,124
2018-07-28T02:39:48.803Z,123
2018-07-28T02:40:01.216Z,107
2018-07-28T02:40:13.665Z,105
2018-07-28T02:40:26.077Z,105
2018-07-28T02:40:38.510Z,105
2018-07-28T02:40:50.937Z,105
2018-07-28T02:41:03.351Z,105
2018-07-28T02:41:15.798Z,105
2018-07-28T02:41:28.234Z,105
2018-07-28T02:41:40.673Z,105
2018-07-28T02:41:53.116Z,103
2018-07-28T02:42:05.538Z,103
2018-07-28T02:42:17.980Z,103
2018-07-28T02:42:30.398Z,103
2018-07-28T02:42:42.816Z,103
2018-07-28T02:42:55.267Z,103
2018-07-28T02:43:07.693Z,103
2018-07-28T02:43:20.158Z,103
2018-07-28T02:43:32.592Z,103
2018-07-28T02:43:45.010Z,103
2018-07-28T02:43:57.442Z,103
2018-07-28T02:44:09.851Z,103
2018-07-28T02:44:22.305Z,103
2018-07-28T02:44:34.721Z,103
2018-07-28T02:44:47.352Z,103
2018-07-28T02:44:59.788Z,103
2018-07-28T02:45:12.250Z,103
2018-07-28T02:45:24.827Z,103
2018-07-28T02:45:37.234Z,103
2018-07-28T02:45:49.677Z,103
2018-07-28T02:46:02.114Z,103
2018-07-28T02:46:14.529Z,103
2018-07-28T02:46:26.950Z,103
2018-07-28T02:46:39.392Z,103
2018-07-28T02:46:51.834Z,103
2018-07-28T02:47:04.251Z,103
2018-07-28T02:47:16.674Z,103
2018-07-28T02:47:29.147Z,103
2018-07-28T02:47:41.557Z,103
2018-07-28T02:47:53.979Z,103
2018-07-28T02:48:06.394Z,103
2018-07-28T02:48:18.835Z,103
2018-07-28T02:48:31.290Z,103
2018-07-28T02:48:43.707Z,103
2018-07-28T02:48:56.262Z,103
2018-07-28T02:49:08.665Z,103
2018-07-28T02:49:21.054Z,103
2018-07-28T02:49:33.469Z,103
2018-07-28T02:49:45.866Z,103
2018-07-28T02:49:58.363Z,103
2018-07-28T02:50:10.835Z,103
2018-07-28T02:50:23.265Z,103
2018-07-28T02:50:35.668Z,103
2018-07-28T02:50:48.077Z,103
2018-07-28T02:51:00.540Z,103
2018-07-28T02:51:12.975Z,103
2018-07-28T02:51:25.388Z,103
2018-07-28T02:51:37.817Z,103
2018-07-28T02:51:50.402Z,104
2018-07-28T02:52:02.829Z,104
2018-07-28T02:52:15.237Z,104
2018-07-28T02:52:27.667Z,104
2018-07-28T02:52:40.103Z,105
2018-07-28T02:52:52.518Z,105
2018-07-28T02:53:04.950Z,105
2018-07-28T02:53:17.521Z,105